sensor_id;sensor_type;location;lat;lon;timestamp;P1;durP1;ratioP1;P2;durP2;ratioP2
22480;SDS011;11407;56.964;-2.212;2023-04-24T00:01:57;11.23;;;2.33;;
22480;SDS011;11407;56.964;-2.212;2023-04-24T00:04:23;8.57;;;2.83;;
22480;SDS011;11407;56.964;-2.212;2023-04-24T00:06:50;11.73;;;2.60;;
22480;SDS011;11407;56.964;-2.212;2023-04-24T00:09:19;12.27;;;2.47;;
22480;SDS011;11407;56.964;-2.212;2023-04-24T00:11:44;7.70;;;2.80;;
22480;SDS011;11407;56.964;-2.212;2023-04-24T00:14:09;10.77;;;3.03;;
22480;SDS011;11407;56.964;-2.212;2023-04-24T00:16:34;11.40;;;3.00;;
22480;SDS011;11407;56.964;-2.212;2023-04-24T00:19:00;17.70;;;3.03;;
22480;SDS011;11407;56.964;-2.212;2023-04-24T00:21:26;10.77;;;2.87;;
22480;SDS011;11407;56.964;-2.212;2023-04-24T00:23:51;13.63;;;3.73;;
22480;SDS011;11407;56.964;-2.212;2023-04-24T00:26:16;9.40;;;3.00;;
22480;SDS011;11407;56.964;-2.212;2023-04-24T00:28:42;14.07;;;3.00;;
22480;SDS011;11407;56.964;-2.212;2023-04-24T00:31:07;11.40;;;2.87;;
22480;SDS011;11407;56.964;-2.212;2023-04-24T00:33:32;10.37;;;2.80;;
22480;SDS011;11407;56.964;-2.212;2023-04-24T00:35:57;7.57;;;2.33;;
22480;SDS011;11407;56.964;-2.212;2023-04-24T00:38:23;8.57;;;2.60;;
22480;SDS011;11407;56.964;-2.212;2023-04-24T00:40:48;6.40;;;2.50;;
22480;SDS011;11407;56.964;-2.212;2023-04-24T00:43:15;10.43;;;2.60;;
22480;SDS011;11407;56.964;-2.212;2023-04-24T00:45:40;11.13;;;2.33;;
22480;SDS011;11407;56.964;-2.212;2023-04-24T00:48:05;8.63;;;2.63;;
22480;SDS011;11407;56.964;-2.212;2023-04-24T00:50:31;7.90;;;2.20;;
22480;SDS011;11407;56.964;-2.212;2023-04-24T00:52:56;7.53;;;2.60;;
22480;SDS011;11407;56.964;-2.212;2023-04-24T00:55:22;8.53;;;2.20;;
22480;SDS011;11407;56.964;-2.212;2023-04-24T00:57:47;10.10;;;2.50;;
22480;SDS011;11407;56.964;-2.212;2023-04-24T01:00:13;8.37;;;2.50;;
22480;SDS011;11407;56.964;-2.212;2023-04-24T01:02:39;11.70;;;2.43;;
22480;SDS011;11407;56.964;-2.212;2023-04-24T01:05:06;9.40;;;2.80;;
22480;SDS011;11407;56.964;-2.212;2023-04-24T01:07:31;7.03;;;2.20;;
22480;SDS011;11407;56.964;-2.212;2023-04-24T01:09:56;9.67;;;2.90;;
22480;SDS011;11407;56.964;-2.212;2023-04-24T01:12:22;7.50;;;2.40;;
22480;SDS011;11407;56.964;-2.212;2023-04-24T01:14:47;8.57;;;2.40;;
22480;SDS011;11407;56.964;-2.212;2023-04-24T01:17:12;8.17;;;2.30;;
22480;SDS011;11407;56.964;-2.212;2023-04-24T01:19:38;7.67;;;1.90;;
22480;SDS011;11407;56.964;-2.212;2023-04-24T01:22:07;4.10;;;1.80;;
22480;SDS011;11407;56.964;-2.212;2023-04-24T01:24:33;6.37;;;2.07;;
22480;SDS011;11407;56.964;-2.212;2023-04-24T01:26:58;7.43;;;2.53;;
22480;SDS011;11407;56.964;-2.212;2023-04-24T01:29:23;8.33;;;2.03;;
22480;SDS011;11407;56.964;-2.212;2023-04-24T01:31:49;8.90;;;2.37;;
22480;SDS011;11407;56.964;-2.212;2023-04-24T01:34:14;9.03;;;2.70;;
22480;SDS011;11407;56.964;-2.212;2023-04-24T01:36:40;7.80;;;2.40;;
22480;SDS011;11407;56.964;-2.212;2023-04-24T01:39:06;6.33;;;2.20;;
22480;SDS011;11407;56.964;-2.212;2023-04-24T01:41:31;9.13;;;2.13;;
22480;SDS011;11407;56.964;-2.212;2023-04-24T01:43:57;9.37;;;2.30;;
22480;SDS011;11407;56.964;-2.212;2023-04-24T01:46:23;6.63;;;2.37;;
22480;SDS011;11407;56.964;-2.212;2023-04-24T01:48:48;8.33;;;2.30;;
22480;SDS011;11407;56.964;-2.212;2023-04-24T01:51:14;8.70;;;2.40;;
22480;SDS011;11407;56.964;-2.212;2023-04-24T01:53:39;11.10;;;2.87;;
22480;SDS011;11407;56.964;-2.212;2023-04-24T01:56:04;7.83;;;2.63;;
22480;SDS011;11407;56.964;-2.212;2023-04-24T01:58:30;13.73;;;2.87;;
22480;SDS011;11407;56.964;-2.212;2023-04-24T02:00:58;12.13;;;2.37;;
22480;SDS011;11407;56.964;-2.212;2023-04-24T02:03:25;7.80;;;2.23;;
22480;SDS011;11407;56.964;-2.212;2023-04-24T02:05:50;10.43;;;2.43;;
22480;SDS011;11407;56.964;-2.212;2023-04-24T02:08:15;9.40;;;2.33;;
22480;SDS011;11407;56.964;-2.212;2023-04-24T02:10:40;9.23;;;2.90;;
22480;SDS011;11407;56.964;-2.212;2023-04-24T02:13:06;9.70;;;2.20;;
22480;SDS011;11407;56.964;-2.212;2023-04-24T02:15:31;7.67;;;2.10;;
22480;SDS011;11407;56.964;-2.212;2023-04-24T02:17:56;7.80;;;2.40;;
22480;SDS011;11407;56.964;-2.212;2023-04-24T02:20:21;5.83;;;1.97;;
22480;SDS011;11407;56.964;-2.212;2023-04-24T02:22:47;3.73;;;1.60;;
22480;SDS011;11407;56.964;-2.212;2023-04-24T02:25:12;6.17;;;2.07;;
22480;SDS011;11407;56.964;-2.212;2023-04-24T02:27:37;4.30;;;1.80;;
22480;SDS011;11407;56.964;-2.212;2023-04-24T02:30:02;6.43;;;1.67;;
22480;SDS011;11407;56.964;-2.212;2023-04-24T02:32:28;7.43;;;1.90;;
22480;SDS011;11407;56.964;-2.212;2023-04-24T02:34:53;4.27;;;1.70;;
22480;SDS011;11407;56.964;-2.212;2023-04-24T02:37:18;8.23;;;2.60;;
22480;SDS011;11407;56.964;-2.212;2023-04-24T02:39:43;5.00;;;1.67;;
22480;SDS011;11407;56.964;-2.212;2023-04-24T02:42:09;8.63;;;2.10;;
22480;SDS011;11407;56.964;-2.212;2023-04-24T02:44:34;9.40;;;2.17;;
22480;SDS011;11407;56.964;-2.212;2023-04-24T02:47:00;7.00;;;2.07;;
22480;SDS011;11407;56.964;-2.212;2023-04-24T02:49:25;7.67;;;2.23;;
22480;SDS011;11407;56.964;-2.212;2023-04-24T02:51:51;6.63;;;1.77;;
22480;SDS011;11407;56.964;-2.212;2023-04-24T02:54:16;4.57;;;1.97;;
22480;SDS011;11407;56.964;-2.212;2023-04-24T02:56:41;7.67;;;2.23;;
22480;SDS011;11407;56.964;-2.212;2023-04-24T02:59:06;5.53;;;1.83;;
22480;SDS011;11407;56.964;-2.212;2023-04-24T03:01:32;7.60;;;2.00;;
22480;SDS011;11407;56.964;-2.212;2023-04-24T03:03:57;10.03;;;2.27;;
22480;SDS011;11407;56.964;-2.212;2023-04-24T03:06:23;6.17;;;1.87;;
22480;SDS011;11407;56.964;-2.212;2023-04-24T03:08:48;7.40;;;1.93;;
22480;SDS011;11407;56.964;-2.212;2023-04-24T03:11:13;9.70;;;2.30;;
22480;SDS011;11407;56.964;-2.212;2023-04-24T03:13:38;8.93;;;2.10;;
22480;SDS011;11407;56.964;-2.212;2023-04-24T03:16:04;9.83;;;1.90;;
22480;SDS011;11407;56.964;-2.212;2023-04-24T03:18:29;4.83;;;1.87;;
22480;SDS011;11407;56.964;-2.212;2023-04-24T03:20:55;5.33;;;2.07;;
22480;SDS011;11407;56.964;-2.212;2023-04-24T03:23:20;6.17;;;1.87;;
22480;SDS011;11407;56.964;-2.212;2023-04-24T03:25:45;6.20;;;2.20;;
22480;SDS011;11407;56.964;-2.212;2023-04-24T03:28:10;4.37;;;1.90;;
22480;SDS011;11407;56.964;-2.212;2023-04-24T03:30:36;5.93;;;1.83;;
22480;SDS011;11407;56.964;-2.212;2023-04-24T03:33:01;8.43;;;2.00;;
22480;SDS011;11407;56.964;-2.212;2023-04-24T03:35:26;6.90;;;1.97;;
22480;SDS011;11407;56.964;-2.212;2023-04-24T03:37:52;6.83;;;1.97;;
22480;SDS011;11407;56.964;-2.212;2023-04-24T03:40:17;7.20;;;1.53;;
22480;SDS011;11407;56.964;-2.212;2023-04-24T03:42:42;10.53;;;2.37;;
22480;SDS011;11407;56.964;-2.212;2023-04-24T03:45:08;5.97;;;1.70;;
22480;SDS011;11407;56.964;-2.212;2023-04-24T03:47:33;5.33;;;1.87;;
22480;SDS011;11407;56.964;-2.212;2023-04-24T03:49:58;5.53;;;1.80;;
22480;SDS011;11407;56.964;-2.212;2023-04-24T03:52:24;10.07;;;2.00;;
22480;SDS011;11407;56.964;-2.212;2023-04-24T03:54:49;4.50;;;1.70;;
22480;SDS011;11407;56.964;-2.212;2023-04-24T03:57:14;4.07;;;1.40;;
22480;SDS011;11407;56.964;-2.212;2023-04-24T03:59:39;10.13;;;1.80;;
22480;SDS011;11407;56.964;-2.212;2023-04-24T04:02:05;6.30;;;1.87;;
22480;SDS011;11407;56.964;-2.212;2023-04-24T04:04:30;6.13;;;1.80;;
22480;SDS011;11407;56.964;-2.212;2023-04-24T04:06:55;5.07;;;1.90;;
22480;SDS011;11407;56.964;-2.212;2023-04-24T04:09:20;10.27;;;1.93;;
22480;SDS011;11407;56.964;-2.212;2023-04-24T04:11:46;9.07;;;2.10;;
22480;SDS011;11407;56.964;-2.212;2023-04-24T04:14:11;5.70;;;1.60;;
22480;SDS011;11407;56.964;-2.212;2023-04-24T04:16:36;5.50;;;1.73;;
22480;SDS011;11407;56.964;-2.212;2023-04-24T04:19:02;5.47;;;1.90;;
22480;SDS011;11407;56.964;-2.212;2023-04-24T04:21:28;11.37;;;2.80;;
22480;SDS011;11407;56.964;-2.212;2023-04-24T04:23:53;11.23;;;1.80;;
22480;SDS011;11407;56.964;-2.212;2023-04-24T04:26:18;11.93;;;2.53;;
22480;SDS011;11407;56.964;-2.212;2023-04-24T04:28:46;9.83;;;1.83;;
22480;SDS011;11407;56.964;-2.212;2023-04-24T04:31:12;7.97;;;1.67;;
22480;SDS011;11407;56.964;-2.212;2023-04-24T04:33:38;6.97;;;2.00;;
22480;SDS011;11407;56.964;-2.212;2023-04-24T04:36:04;9.30;;;2.00;;
22480;SDS011;11407;56.964;-2.212;2023-04-24T04:38:29;9.03;;;1.90;;
22480;SDS011;11407;56.964;-2.212;2023-04-24T04:40:55;5.43;;;1.67;;
22480;SDS011;11407;56.964;-2.212;2023-04-24T04:43:22;8.23;;;1.90;;
22480;SDS011;11407;56.964;-2.212;2023-04-24T04:45:47;6.93;;;1.67;;
22480;SDS011;11407;56.964;-2.212;2023-04-24T04:48:13;6.57;;;1.97;;
22480;SDS011;11407;56.964;-2.212;2023-04-24T04:50:39;8.83;;;2.10;;
22480;SDS011;11407;56.964;-2.212;2023-04-24T04:53:04;12.30;;;2.07;;
22480;SDS011;11407;56.964;-2.212;2023-04-24T04:55:30;9.30;;;2.33;;
22480;SDS011;11407;56.964;-2.212;2023-04-24T04:57:55;7.93;;;1.77;;
22480;SDS011;11407;56.964;-2.212;2023-04-24T05:00:21;6.40;;;1.87;;
22480;SDS011;11407;56.964;-2.212;2023-04-24T05:02:46;8.20;;;1.83;;
22480;SDS011;11407;56.964;-2.212;2023-04-24T05:05:12;6.03;;;1.90;;
22480;SDS011;11407;56.964;-2.212;2023-04-24T05:07:37;4.93;;;1.80;;
22480;SDS011;11407;56.964;-2.212;2023-04-24T05:10:02;9.83;;;1.90;;
22480;SDS011;11407;56.964;-2.212;2023-04-24T05:12:27;4.10;;;1.50;;
22480;SDS011;11407;56.964;-2.212;2023-04-24T05:14:53;5.73;;;1.63;;
22480;SDS011;11407;56.964;-2.212;2023-04-24T05:17:18;6.00;;;1.70;;
22480;SDS011;11407;56.964;-2.212;2023-04-24T05:19:43;4.63;;;1.50;;
22480;SDS011;11407;56.964;-2.212;2023-04-24T05:22:09;3.40;;;1.50;;
22480;SDS011;11407;56.964;-2.212;2023-04-24T05:24:34;6.37;;;1.33;;
22480;SDS011;11407;56.964;-2.212;2023-04-24T05:27:00;3.07;;;1.50;;
22480;SDS011;11407;56.964;-2.212;2023-04-24T05:29:25;4.50;;;1.37;;
22480;SDS011;11407;56.964;-2.212;2023-04-24T05:31:51;6.47;;;1.57;;
22480;SDS011;11407;56.964;-2.212;2023-04-24T05:34:16;5.17;;;1.70;;
22480;SDS011;11407;56.964;-2.212;2023-04-24T05:36:42;4.73;;;1.50;;
22480;SDS011;11407;56.964;-2.212;2023-04-24T05:39:07;3.10;;;1.50;;
22480;SDS011;11407;56.964;-2.212;2023-04-24T05:41:33;4.47;;;1.60;;
22480;SDS011;11407;56.964;-2.212;2023-04-24T05:43:58;4.23;;;1.30;;
22480;SDS011;11407;56.964;-2.212;2023-04-24T05:46:23;5.07;;;1.40;;
22480;SDS011;11407;56.964;-2.212;2023-04-24T05:48:49;2.80;;;1.30;;
22480;SDS011;11407;56.964;-2.212;2023-04-24T05:51:14;3.43;;;1.53;;
22480;SDS011;11407;56.964;-2.212;2023-04-24T05:53:40;8.57;;;1.80;;
22480;SDS011;11407;56.964;-2.212;2023-04-24T05:56:05;4.97;;;1.57;;
22480;SDS011;11407;56.964;-2.212;2023-04-24T05:58:30;4.47;;;1.53;;
22480;SDS011;11407;56.964;-2.212;2023-04-24T06:00:55;5.70;;;1.83;;
22480;SDS011;11407;56.964;-2.212;2023-04-24T06:03:22;3.30;;;1.30;;
22480;SDS011;11407;56.964;-2.212;2023-04-24T06:05:49;5.50;;;2.30;;
22480;SDS011;11407;56.964;-2.212;2023-04-24T06:08:14;4.30;;;1.67;;
22480;SDS011;11407;56.964;-2.212;2023-04-24T06:10:39;4.57;;;1.83;;
22480;SDS011;11407;56.964;-2.212;2023-04-24T06:13:05;7.17;;;1.93;;
22480;SDS011;11407;56.964;-2.212;2023-04-24T06:15:30;10.57;;;1.90;;
22480;SDS011;11407;56.964;-2.212;2023-04-24T06:17:58;6.60;;;1.70;;
22480;SDS011;11407;56.964;-2.212;2023-04-24T06:20:23;4.43;;;1.77;;
22480;SDS011;11407;56.964;-2.212;2023-04-24T06:22:49;6.77;;;1.73;;
22480;SDS011;11407;56.964;-2.212;2023-04-24T06:25:14;5.23;;;1.90;;
22480;SDS011;11407;56.964;-2.212;2023-04-24T06:27:39;6.47;;;2.00;;
22480;SDS011;11407;56.964;-2.212;2023-04-24T06:30:05;6.40;;;2.13;;
22480;SDS011;11407;56.964;-2.212;2023-04-24T06:32:31;6.53;;;2.10;;
22480;SDS011;11407;56.964;-2.212;2023-04-24T06:34:56;5.77;;;1.50;;
22480;SDS011;11407;56.964;-2.212;2023-04-24T06:37:21;4.47;;;1.60;;
22480;SDS011;11407;56.964;-2.212;2023-04-24T06:39:47;7.80;;;1.90;;
22480;SDS011;11407;56.964;-2.212;2023-04-24T06:42:12;7.13;;;1.97;;
22480;SDS011;11407;56.964;-2.212;2023-04-24T06:44:37;3.70;;;1.40;;
22480;SDS011;11407;56.964;-2.212;2023-04-24T06:47:08;4.87;;;1.80;;
22480;SDS011;11407;56.964;-2.212;2023-04-24T06:49:35;5.50;;;2.03;;
22480;SDS011;11407;56.964;-2.212;2023-04-24T06:52:00;8.67;;;2.03;;
22480;SDS011;11407;56.964;-2.212;2023-04-24T06:54:25;6.50;;;1.90;;
22480;SDS011;11407;56.964;-2.212;2023-04-24T06:56:50;6.13;;;1.77;;
22480;SDS011;11407;56.964;-2.212;2023-04-24T06:59:17;10.73;;;2.50;;
22480;SDS011;11407;56.964;-2.212;2023-04-24T07:01:42;8.30;;;2.17;;
22480;SDS011;11407;56.964;-2.212;2023-04-24T07:04:07;5.80;;;1.80;;
22480;SDS011;11407;56.964;-2.212;2023-04-24T07:06:33;8.87;;;2.13;;
22480;SDS011;11407;56.964;-2.212;2023-04-24T07:08:58;7.50;;;1.70;;
22480;SDS011;11407;56.964;-2.212;2023-04-24T07:11:24;7.53;;;2.07;;
22480;SDS011;11407;56.964;-2.212;2023-04-24T07:13:54;7.50;;;1.93;;
22480;SDS011;11407;56.964;-2.212;2023-04-24T07:16:19;10.23;;;2.10;;
22480;SDS011;11407;56.964;-2.212;2023-04-24T07:18:44;7.13;;;1.87;;
22480;SDS011;11407;56.964;-2.212;2023-04-24T07:21:10;5.77;;;1.97;;
22480;SDS011;11407;56.964;-2.212;2023-04-24T07:23:35;6.83;;;1.67;;
22480;SDS011;11407;56.964;-2.212;2023-04-24T07:26:01;5.47;;;1.60;;
22480;SDS011;11407;56.964;-2.212;2023-04-24T07:28:26;4.90;;;2.20;;
22480;SDS011;11407;56.964;-2.212;2023-04-24T07:30:51;4.33;;;1.70;;
22480;SDS011;11407;56.964;-2.212;2023-04-24T07:33:18;4.33;;;1.40;;
22480;SDS011;11407;56.964;-2.212;2023-04-24T07:35:44;4.23;;;1.53;;
22480;SDS011;11407;56.964;-2.212;2023-04-24T07:38:09;6.50;;;1.67;;
22480;SDS011;11407;56.964;-2.212;2023-04-24T07:40:35;5.47;;;1.60;;
22480;SDS011;11407;56.964;-2.212;2023-04-24T07:43:00;7.87;;;1.60;;
22480;SDS011;11407;56.964;-2.212;2023-04-24T07:45:25;6.07;;;1.73;;
22480;SDS011;11407;56.964;-2.212;2023-04-24T07:47:52;4.23;;;1.63;;
22480;SDS011;11407;56.964;-2.212;2023-04-24T07:50:18;5.80;;;2.23;;
22480;SDS011;11407;56.964;-2.212;2023-04-24T07:52:43;10.63;;;2.17;;
22480;SDS011;11407;56.964;-2.212;2023-04-24T07:55:08;7.83;;;1.70;;
22480;SDS011;11407;56.964;-2.212;2023-04-24T07:57:34;9.80;;;2.10;;
22480;SDS011;11407;56.964;-2.212;2023-04-24T07:59:59;5.13;;;2.30;;
22480;SDS011;11407;56.964;-2.212;2023-04-24T08:02:24;11.57;;;2.27;;
22480;SDS011;11407;56.964;-2.212;2023-04-24T08:04:55;7.77;;;2.60;;
22480;SDS011;11407;56.964;-2.212;2023-04-24T08:07:20;15.00;;;2.93;;
22480;SDS011;11407;56.964;-2.212;2023-04-24T08:09:46;11.63;;;2.50;;
22480;SDS011;11407;56.964;-2.212;2023-04-24T08:12:11;11.53;;;2.20;;
22480;SDS011;11407;56.964;-2.212;2023-04-24T08:14:36;7.87;;;2.13;;
22480;SDS011;11407;56.964;-2.212;2023-04-24T08:17:01;6.13;;;2.03;;
22480;SDS011;11407;56.964;-2.212;2023-04-24T08:19:27;10.10;;;2.30;;
22480;SDS011;11407;56.964;-2.212;2023-04-24T08:21:52;9.70;;;2.40;;
22480;SDS011;11407;56.964;-2.212;2023-04-24T08:24:18;12.30;;;2.60;;
22480;SDS011;11407;56.964;-2.212;2023-04-24T08:26:43;10.30;;;2.07;;
22480;SDS011;11407;56.964;-2.212;2023-04-24T08:29:08;9.23;;;2.03;;
22480;SDS011;11407;56.964;-2.212;2023-04-24T08:31:33;10.53;;;2.17;;
22480;SDS011;11407;56.964;-2.212;2023-04-24T08:33:59;7.07;;;2.60;;
22480;SDS011;11407;56.964;-2.212;2023-04-24T08:36:25;9.37;;;2.27;;
22480;SDS011;11407;56.964;-2.212;2023-04-24T08:38:50;12.23;;;2.13;;
22480;SDS011;11407;56.964;-2.212;2023-04-24T08:41:15;11.97;;;2.40;;
22480;SDS011;11407;56.964;-2.212;2023-04-24T08:43:42;6.90;;;2.23;;
22480;SDS011;11407;56.964;-2.212;2023-04-24T08:46:08;6.93;;;2.00;;
22480;SDS011;11407;56.964;-2.212;2023-04-24T08:48:34;12.93;;;2.47;;
22480;SDS011;11407;56.964;-2.212;2023-04-24T08:51:00;9.53;;;2.10;;
22480;SDS011;11407;56.964;-2.212;2023-04-24T08:53:27;10.77;;;2.60;;
22480;SDS011;11407;56.964;-2.212;2023-04-24T08:55:52;6.40;;;1.97;;
22480;SDS011;11407;56.964;-2.212;2023-04-24T08:58:19;12.10;;;2.43;;
22480;SDS011;11407;56.964;-2.212;2023-04-24T09:00:44;7.53;;;1.80;;
22480;SDS011;11407;56.964;-2.212;2023-04-24T09:03:13;6.83;;;1.90;;
22480;SDS011;11407;56.964;-2.212;2023-04-24T09:05:39;7.20;;;1.87;;
22480;SDS011;11407;56.964;-2.212;2023-04-24T09:08:05;9.77;;;1.90;;
22480;SDS011;11407;56.964;-2.212;2023-04-24T09:10:31;7.20;;;1.60;;
22480;SDS011;11407;56.964;-2.212;2023-04-24T09:12:59;11.50;;;2.50;;
22480;SDS011;11407;56.964;-2.212;2023-04-24T09:15:27;7.57;;;1.93;;
22480;SDS011;11407;56.964;-2.212;2023-04-24T09:17:52;11.17;;;1.90;;
22480;SDS011;11407;56.964;-2.212;2023-04-24T09:20:18;9.17;;;1.73;;
22480;SDS011;11407;56.964;-2.212;2023-04-24T09:22:43;7.57;;;1.70;;
22480;SDS011;11407;56.964;-2.212;2023-04-24T09:25:10;12.07;;;2.40;;
22480;SDS011;11407;56.964;-2.212;2023-04-24T09:27:41;5.33;;;1.70;;
22480;SDS011;11407;56.964;-2.212;2023-04-24T09:30:06;6.53;;;1.80;;
22480;SDS011;11407;56.964;-2.212;2023-04-24T09:32:33;10.27;;;2.13;;
22480;SDS011;11407;56.964;-2.212;2023-04-24T09:35:04;10.67;;;2.63;;
22480;SDS011;11407;56.964;-2.212;2023-04-24T09:37:34;11.27;;;2.07;;
22480;SDS011;11407;56.964;-2.212;2023-04-24T09:42:35;8.30;;;1.93;;
22480;SDS011;11407;56.964;-2.212;2023-04-24T09:45:00;6.20;;;1.90;;
22480;SDS011;11407;56.964;-2.212;2023-04-24T09:47:26;4.37;;;1.93;;
22480;SDS011;11407;56.964;-2.212;2023-04-24T09:49:51;7.37;;;2.10;;
22480;SDS011;11407;56.964;-2.212;2023-04-24T09:52:22;6.30;;;1.97;;
22480;SDS011;11407;56.964;-2.212;2023-04-24T09:54:52;8.43;;;1.73;;
22480;SDS011;11407;56.964;-2.212;2023-04-24T09:57:17;3.30;;;1.77;;
22480;SDS011;11407;56.964;-2.212;2023-04-24T09:59:43;9.37;;;2.30;;
22480;SDS011;11407;56.964;-2.212;2023-04-24T10:02:17;10.00;;;2.10;;
22480;SDS011;11407;56.964;-2.212;2023-04-24T10:04:53;8.03;;;2.00;;
22480;SDS011;11407;56.964;-2.212;2023-04-24T10:07:19;13.47;;;2.57;;
22480;SDS011;11407;56.964;-2.212;2023-04-24T10:09:44;14.67;;;2.80;;
22480;SDS011;11407;56.964;-2.212;2023-04-24T10:12:10;10.63;;;2.33;;
22480;SDS011;11407;56.964;-2.212;2023-04-24T10:14:36;10.33;;;2.00;;
22480;SDS011;11407;56.964;-2.212;2023-04-24T10:17:01;7.40;;;2.30;;
22480;SDS011;11407;56.964;-2.212;2023-04-24T10:19:27;9.60;;;1.97;;
22480;SDS011;11407;56.964;-2.212;2023-04-24T10:21:54;10.37;;;2.23;;
22480;SDS011;11407;56.964;-2.212;2023-04-24T10:24:21;9.50;;;2.03;;
22480;SDS011;11407;56.964;-2.212;2023-04-24T10:26:46;8.63;;;2.40;;
22480;SDS011;11407;56.964;-2.212;2023-04-24T10:29:13;8.70;;;1.93;;
22480;SDS011;11407;56.964;-2.212;2023-04-24T10:31:40;8.90;;;2.10;;
22480;SDS011;11407;56.964;-2.212;2023-04-24T10:34:06;9.53;;;2.23;;
22480;SDS011;11407;56.964;-2.212;2023-04-24T10:36:35;6.47;;;1.90;;
22480;SDS011;11407;56.964;-2.212;2023-04-24T10:39:02;7.40;;;2.40;;
22480;SDS011;11407;56.964;-2.212;2023-04-24T10:41:27;6.27;;;2.07;;
22480;SDS011;11407;56.964;-2.212;2023-04-24T10:44:11;8.10;;;2.50;;
22480;SDS011;11407;56.964;-2.212;2023-04-24T10:46:36;6.57;;;2.00;;
22480;SDS011;11407;56.964;-2.212;2023-04-24T10:49:05;3.97;;;1.80;;
22480;SDS011;11407;56.964;-2.212;2023-04-24T10:51:49;10.03;;;2.00;;
22480;SDS011;11407;56.964;-2.212;2023-04-24T10:54:24;6.60;;;2.00;;
22480;SDS011;11407;56.964;-2.212;2023-04-24T10:56:50;7.97;;;1.97;;
22480;SDS011;11407;56.964;-2.212;2023-04-24T10:59:26;6.37;;;1.90;;
22480;SDS011;11407;56.964;-2.212;2023-04-24T11:01:55;6.07;;;1.67;;
22480;SDS011;11407;56.964;-2.212;2023-04-24T11:04:30;8.10;;;2.00;;
22480;SDS011;11407;56.964;-2.212;2023-04-24T11:06:56;5.10;;;1.80;;
22480;SDS011;11407;56.964;-2.212;2023-04-24T11:09:21;7.27;;;1.67;;
22480;SDS011;11407;56.964;-2.212;2023-04-24T11:11:47;3.17;;;1.33;;
22480;SDS011;11407;56.964;-2.212;2023-04-24T11:14:15;7.43;;;1.47;;
22480;SDS011;11407;56.964;-2.212;2023-04-24T11:21:42;2.47;;;1.20;;
22480;SDS011;11407;56.964;-2.212;2023-04-24T11:26:52;4.67;;;1.70;;
22480;SDS011;11407;56.964;-2.212;2023-04-24T11:29:19;5.70;;;1.60;;
22480;SDS011;11407;56.964;-2.212;2023-04-24T11:31:45;4.40;;;1.50;;
22480;SDS011;11407;56.964;-2.212;2023-04-24T11:34:15;4.83;;;1.60;;
22480;SDS011;11407;56.964;-2.212;2023-04-24T11:36:44;4.23;;;1.57;;
22480;SDS011;11407;56.964;-2.212;2023-04-24T11:39:10;5.93;;;1.70;;
22480;SDS011;11407;56.964;-2.212;2023-04-24T11:41:36;5.40;;;2.07;;
22480;SDS011;11407;56.964;-2.212;2023-04-24T11:44:02;4.07;;;1.93;;
22480;SDS011;11407;56.964;-2.212;2023-04-24T11:46:28;2.30;;;1.33;;
22480;SDS011;11407;56.964;-2.212;2023-04-24T11:48:54;2.73;;;1.40;;
22480;SDS011;11407;56.964;-2.212;2023-04-24T11:51:20;5.57;;;1.73;;
22480;SDS011;11407;56.964;-2.212;2023-04-24T11:53:45;3.50;;;1.60;;
22480;SDS011;11407;56.964;-2.212;2023-04-24T11:56:10;6.07;;;1.73;;
22480;SDS011;11407;56.964;-2.212;2023-04-24T11:58:35;8.07;;;1.90;;
22480;SDS011;11407;56.964;-2.212;2023-04-24T12:01:01;6.00;;;2.03;;
22480;SDS011;11407;56.964;-2.212;2023-04-24T12:03:26;4.53;;;1.70;;
22480;SDS011;11407;56.964;-2.212;2023-04-24T12:05:52;5.80;;;1.80;;
22480;SDS011;11407;56.964;-2.212;2023-04-24T12:08:29;6.23;;;1.50;;
22480;SDS011;11407;56.964;-2.212;2023-04-24T12:10:54;8.30;;;1.97;;
22480;SDS011;11407;56.964;-2.212;2023-04-24T12:13:19;7.97;;;1.60;;
22480;SDS011;11407;56.964;-2.212;2023-04-24T12:15:45;6.47;;;1.77;;
22480;SDS011;11407;56.964;-2.212;2023-04-24T12:18:13;5.17;;;1.33;;
22480;SDS011;11407;56.964;-2.212;2023-04-24T12:20:40;5.03;;;1.40;;
22480;SDS011;11407;56.964;-2.212;2023-04-24T12:23:05;4.33;;;1.60;;
22480;SDS011;11407;56.964;-2.212;2023-04-24T12:25:31;3.40;;;1.30;;
22480;SDS011;11407;56.964;-2.212;2023-04-24T12:30:28;3.07;;;1.40;;
22480;SDS011;11407;56.964;-2.212;2023-04-24T12:32:54;4.83;;;1.57;;
22480;SDS011;11407;56.964;-2.212;2023-04-24T12:35:21;3.97;;;1.60;;
22480;SDS011;11407;56.964;-2.212;2023-04-24T12:37:46;7.43;;;2.20;;
22480;SDS011;11407;56.964;-2.212;2023-04-24T12:40:12;4.13;;;1.40;;
22480;SDS011;11407;56.964;-2.212;2023-04-24T12:45:12;1.83;;;1.10;;
22480;SDS011;11407;56.964;-2.212;2023-04-24T12:47:38;5.43;;;1.40;;
22480;SDS011;11407;56.964;-2.212;2023-04-24T12:50:03;9.93;;;2.17;;
22480;SDS011;11407;56.964;-2.212;2023-04-24T12:52:30;6.47;;;1.50;;
22480;SDS011;11407;56.964;-2.212;2023-04-24T12:54:56;4.23;;;1.67;;
22480;SDS011;11407;56.964;-2.212;2023-04-24T12:57:25;9.53;;;1.90;;
22480;SDS011;11407;56.964;-2.212;2023-04-24T12:59:52;4.53;;;1.60;;
22480;SDS011;11407;56.964;-2.212;2023-04-24T13:02:17;7.43;;;1.60;;
22480;SDS011;11407;56.964;-2.212;2023-04-24T13:04:52;4.80;;;1.30;;
22480;SDS011;11407;56.964;-2.212;2023-04-24T13:07:17;2.20;;;1.20;;
22480;SDS011;11407;56.964;-2.212;2023-04-24T13:09:43;4.27;;;1.30;;
22480;SDS011;11407;56.964;-2.212;2023-04-24T13:12:09;3.30;;;1.40;;
22480;SDS011;11407;56.964;-2.212;2023-04-24T13:14:35;5.87;;;1.30;;
22480;SDS011;11407;56.964;-2.212;2023-04-24T13:17:00;4.73;;;1.30;;
22480;SDS011;11407;56.964;-2.212;2023-04-24T13:19:26;4.27;;;1.30;;
22480;SDS011;11407;56.964;-2.212;2023-04-24T13:21:51;4.50;;;1.57;;
22480;SDS011;11407;56.964;-2.212;2023-04-24T13:24:17;8.80;;;1.80;;
22480;SDS011;11407;56.964;-2.212;2023-04-24T13:26:42;6.60;;;1.80;;
22480;SDS011;11407;56.964;-2.212;2023-04-24T13:29:07;5.97;;;1.57;;
22480;SDS011;11407;56.964;-2.212;2023-04-24T13:31:33;8.17;;;1.50;;
22480;SDS011;11407;56.964;-2.212;2023-04-24T13:33:58;4.13;;;1.20;;
22480;SDS011;11407;56.964;-2.212;2023-04-24T13:36:23;3.37;;;1.30;;
22480;SDS011;11407;56.964;-2.212;2023-04-24T13:38:48;3.67;;;1.30;;
22480;SDS011;11407;56.964;-2.212;2023-04-24T13:41:14;4.83;;;1.43;;
22480;SDS011;11407;56.964;-2.212;2023-04-24T13:43:39;3.83;;;1.20;;
22480;SDS011;11407;56.964;-2.212;2023-04-24T13:46:06;5.50;;;1.40;;
22480;SDS011;11407;56.964;-2.212;2023-04-24T13:48:31;3.57;;;1.30;;
22480;SDS011;11407;56.964;-2.212;2023-04-24T13:50:57;4.67;;;1.20;;
22480;SDS011;11407;56.964;-2.212;2023-04-24T13:53:22;4.90;;;1.40;;
22480;SDS011;11407;56.964;-2.212;2023-04-24T13:55:47;3.23;;;1.13;;
22480;SDS011;11407;56.964;-2.212;2023-04-24T13:58:12;2.97;;;1.10;;
22480;SDS011;11407;56.964;-2.212;2023-04-24T14:00:38;3.13;;;0.83;;
22480;SDS011;11407;56.964;-2.212;2023-04-24T14:03:03;2.27;;;1.00;;
22480;SDS011;11407;56.964;-2.212;2023-04-24T14:05:28;5.03;;;1.03;;
22480;SDS011;11407;56.964;-2.212;2023-04-24T14:07:54;4.37;;;1.33;;
22480;SDS011;11407;56.964;-2.212;2023-04-24T14:10:19;4.30;;;1.23;;
22480;SDS011;11407;56.964;-2.212;2023-04-24T14:12:44;1.67;;;0.90;;
22480;SDS011;11407;56.964;-2.212;2023-04-24T14:15:10;3.17;;;1.00;;
22480;SDS011;11407;56.964;-2.212;2023-04-24T14:17:36;2.23;;;1.10;;
22480;SDS011;11407;56.964;-2.212;2023-04-24T14:20:01;2.53;;;1.00;;
22480;SDS011;11407;56.964;-2.212;2023-04-24T14:22:26;1.87;;;0.83;;
22480;SDS011;11407;56.964;-2.212;2023-04-24T14:24:52;4.27;;;1.07;;
22480;SDS011;11407;56.964;-2.212;2023-04-24T14:27:17;5.30;;;1.27;;
22480;SDS011;11407;56.964;-2.212;2023-04-24T14:29:42;4.70;;;1.23;;
22480;SDS011;11407;56.964;-2.212;2023-04-24T14:32:10;2.97;;;1.20;;
22480;SDS011;11407;56.964;-2.212;2023-04-24T14:34:35;4.90;;;1.20;;
22480;SDS011;11407;56.964;-2.212;2023-04-24T14:37:01;4.63;;;1.20;;
22480;SDS011;11407;56.964;-2.212;2023-04-24T14:39:26;3.67;;;1.33;;
22480;SDS011;11407;56.964;-2.212;2023-04-24T14:41:51;5.23;;;1.60;;